This is the latest recevied weather packets stored in our database for station/object OE-11213. If no packets are shown the sender has not sent any weather packets the latest 10 day(s).
| Time | Temp. | Humidity | Pressure | Rain* | Wind** | Luminosity | Snow |
|---|---|---|---|---|---|---|---|
| 1788343904 | 21.67° C | 69% | 1020.9 hPa | 0 mm | - | 769 W/m² | - |
| 1788343531 | 21.11° C | 70% | 1021 hPa | 0 mm | - | 515 W/m² | - |
| 1788342931 | 21.67° C | 70% | 1021.2 hPa | 0 mm | - | 754 W/m² | - |
| 1788342104 | 21.67° C | 72% | 1021.2 hPa | 0 mm | - | 653 W/m² | - |
| 1788341731 | 21.11° C | 73% | 1021.5 hPa | 0 mm | - | 725 W/m² | - |
| 1788341131 | 21.11° C | 73% | 1021.6 hPa | 0 mm | - | 740 W/m² | - |
| 1788340304 | 20.56° C | 72% | 1021.8 hPa | 0 mm | - | 732 W/m² | - |
| 1788339931 | 20.56° C | 75% | 1021.7 hPa | 0 mm | - | 703 W/m² | - |
| 1788338504 | 19.44° C | 82% | 1022.3 hPa | 0 mm | - | 319 W/m² | - |
| 1788338131 | 18.89° C | 82% | 1022.1 hPa | 0 mm | - | 297 W/m² | - |
| 1788337531 | 18.89° C | 83% | 1022.1 hPa | 0 mm | - | 254 W/m² | - |
| 1788336704 | 18.89° C | 86% | 1022.1 hPa | 0 mm | - | 203 W/m² | - |
| 1788336331 | 18.33° C | 86% | 1022.2 hPa | 0 mm | - | 232 W/m² | - |
| 1788335731 | 18.33° C | 84% | 1022.3 hPa | 0 mm | - | 261 W/m² | - |
| 1788334904 | 18.33° C | 85% | 1022.2 hPa | 0 mm | - | 312 W/m² | - |
| 1788334531 | 18.33° C | 85% | 1022.2 hPa | 0 mm | - | 268 W/m² | - |
| 1788333931 | 18.33° C | 86% | 1022.2 hPa | 0 mm | - | 305 W/m² | - |
| 1788333224 | 18.33° C | 87% | 1022.2 hPa | 0 mm | - | 326 W/m² | - |
| 1788332730 | 17.78° C | 89% | 1022.4 hPa | 0 mm | - | 189 W/m² | - |
| 1788332131 | 17.22° C | 89% | 1022.4 hPa | 0 mm | - | 145 W/m² | - |
| 1788331304 | 17.22° C | 91% | 1022.3 hPa | 0 mm | - | 160 W/m² | - |
| 1788330331 | 17.22° C | 94% | 1022.4 hPa | 0 mm | - | 94 W/m² | - |
| 1788329504 | 16.67° C | 94% | 1022.3 hPa | 0 mm | - | 80 W/m² | - |
| 1788329131 | 16.67° C | 96% | 1022.3 hPa | 0 mm | - | 44 W/m² | - |
| 1788328531 | 16.67° C | 98% | 1022.3 hPa | 0 mm | - | 36 W/m² | - |
* Rain latest hour (hover to see other rain measurements)
** Current wind speed in m/s (hover to see current wind gust speed)